createdAt,value
2022-12-12T00:00:43.572Z,13.37
2022-12-12T00:03:10.285Z,14.23
2022-12-12T00:05:37.241Z,12.73
2022-12-12T00:08:04.118Z,12.93
2022-12-12T00:10:30.827Z,12.70
2022-12-12T00:12:57.500Z,13.00
2022-12-12T00:15:24.104Z,12.67
2022-12-12T00:17:50.807Z,12.07
2022-12-12T00:20:17.502Z,12.23
2022-12-12T00:22:44.295Z,11.60
2022-12-12T00:25:11.782Z,12.00
2022-12-12T00:27:38.757Z,12.17
2022-12-12T00:30:06.974Z,11.17
2022-12-12T00:32:33.645Z,11.10
2022-12-12T00:35:00.195Z,10.17
2022-12-12T00:37:26.986Z,10.63
2022-12-12T00:39:53.730Z,11.10
2022-12-12T00:42:20.262Z,10.93
2022-12-12T00:44:46.872Z,10.57
2022-12-12T00:47:13.542Z,12.63
2022-12-12T00:49:40.202Z,12.63
2022-12-12T00:52:06.860Z,12.33
2022-12-12T00:54:34.086Z,13.37
2022-12-12T00:57:00.727Z,12.57
2022-12-12T00:59:27.813Z,12.53
2022-12-12T01:01:54.499Z,13.43
2022-12-12T01:04:21.363Z,13.30
2022-12-12T01:06:50.283Z,13.80
2022-12-12T01:09:16.903Z,13.00
2022-12-12T01:11:43.540Z,14.90
2022-12-12T01:14:10.082Z,14.33
2022-12-12T01:16:36.956Z,13.37
2022-12-12T01:19:03.652Z,14.10
2022-12-12T01:21:30.304Z,14.17
2022-12-12T01:23:56.974Z,14.13
2022-12-12T01:26:24.740Z,11.97
2022-12-12T01:28:52.164Z,12.20
2022-12-12T01:31:18.887Z,12.20
2022-12-12T01:33:46.422Z,13.20
2022-12-12T01:36:16.590Z,10.70
2022-12-12T01:38:48.718Z,11.70
2022-12-12T01:41:16.235Z,12.97
2022-12-12T01:43:42.905Z,12.00
2022-12-12T01:46:30.763Z,12.43
2022-12-12T01:49:03.770Z,11.10
2022-12-12T01:51:31.224Z,11.83
2022-12-12T01:54:02.704Z,11.50
2022-12-12T01:56:29.764Z,10.43
2022-12-12T01:58:56.647Z,10.33
2022-12-12T02:01:23.773Z,10.70
2022-12-12T02:03:50.506Z,11.13
2022-12-12T02:06:20.841Z,11.77
2022-12-12T02:08:47.872Z,11.80
2022-12-12T02:11:14.509Z,11.40
2022-12-12T02:13:41.442Z,11.00
2022-12-12T02:16:23.142Z,11.10
2022-12-12T02:19:20.418Z,10.07
2022-12-12T02:21:59.414Z,10.53
2022-12-12T02:24:47.894Z,10.67
2022-12-12T02:27:41.027Z,10.63
2022-12-12T02:30:11.060Z,10.90
2022-12-12T02:32:46.680Z,11.90
2022-12-12T02:35:19.246Z,11.70
2022-12-12T02:37:56.886Z,13.67
2022-12-12T02:40:51.610Z,14.10
2022-12-12T02:43:56.864Z,12.57
2022-12-12T02:46:48.077Z,12.37
2022-12-12T02:49:50.003Z,12.20
2022-12-12T02:52:17.798Z,13.37
2022-12-12T02:54:44.848Z,12.80
2022-12-12T02:57:20.469Z,12.67
2022-12-12T02:59:52.327Z,11.30
2022-12-12T03:02:40.681Z,11.10
2022-12-12T03:05:50.677Z,13.20
2022-12-12T03:08:26.397Z,13.47
2022-12-12T03:10:59.103Z,12.30
2022-12-12T03:13:45.377Z,12.53
2022-12-12T03:16:30.243Z,12.00
2022-12-12T03:19:10.913Z,12.67
2022-12-12T03:21:50.650Z,11.90
2022-12-12T03:24:37.502Z,11.50
2022-12-12T03:27:23.467Z,11.50
2022-12-12T03:29:55.704Z,11.50
2022-12-12T03:32:34.522Z,11.80
2022-12-12T03:35:08.645Z,11.07
2022-12-12T03:37:38.134Z,9.90
2022-12-12T03:40:28.396Z,10.80
2022-12-12T03:43:00.945Z,9.27
2022-12-12T03:45:29.372Z,10.13
2022-12-12T03:48:00.995Z,10.10
2022-12-12T03:50:32.264Z,9.80
2022-12-12T03:53:32.587Z,10.20
2022-12-12T03:56:09.734Z,9.70
2022-12-12T03:58:49.234Z,8.77
2022-12-12T04:01:19.672Z,8.40
2022-12-12T04:04:09.509Z,10.53
2022-12-12T04:06:39.526Z,9.40
2022-12-12T04:09:33.442Z,9.40
2022-12-12T04:12:37.560Z,9.03
2022-12-12T04:15:04.047Z,8.60
2022-12-12T04:17:41.958Z,7.90
2022-12-12T04:20:33.770Z,6.60
2022-12-12T04:23:34.919Z,7.63
2022-12-12T04:26:27.714Z,7.23
2022-12-12T04:29:14.615Z,7.60
2022-12-12T04:32:00.257Z,6.23
2022-12-12T04:34:44.594Z,8.20
2022-12-12T04:37:15.333Z,8.33
2022-12-12T04:39:43.994Z,8.10
2022-12-12T04:42:12.242Z,8.13
2022-12-12T04:44:40.860Z,8.80
2022-12-12T04:47:08.152Z,8.50
2022-12-12T04:49:36.406Z,10.37
2022-12-12T04:52:06.706Z,9.60
2022-12-12T04:54:57.892Z,8.60
2022-12-12T04:57:28.119Z,8.57
2022-12-12T04:59:54.912Z,9.33
2022-12-12T05:02:26.376Z,9.07
2022-12-12T05:04:58.156Z,9.50
2022-12-12T05:07:39.256Z,9.53
2022-12-12T05:10:10.823Z,9.33
2022-12-12T05:12:49.055Z,12.00
2022-12-12T05:15:18.024Z,10.17
2022-12-12T05:18:08.216Z,10.77
2022-12-12T05:20:34.992Z,8.90
2022-12-12T05:23:01.617Z,9.10
2022-12-12T05:25:28.391Z,10.30
2022-12-12T05:27:55.018Z,9.67
2022-12-12T05:30:22.077Z,9.20
2022-12-12T05:32:48.704Z,8.93
2022-12-12T05:35:15.560Z,9.00
2022-12-12T05:37:46.638Z,8.23
2022-12-12T05:40:16.523Z,9.47
2022-12-12T05:42:43.236Z,9.10
2022-12-12T05:45:11.166Z,9.37
2022-12-12T05:47:37.986Z,8.37
2022-12-12T05:50:05.398Z,9.77
2022-12-12T05:52:32.236Z,10.07
2022-12-12T05:54:58.843Z,11.67
2022-12-12T05:57:25.508Z,11.00
2022-12-12T05:59:52.126Z,11.97
2022-12-12T06:02:18.833Z,12.60
2022-12-12T06:04:47.527Z,12.73
2022-12-12T06:07:14.080Z,12.63
2022-12-12T06:09:40.743Z,13.63
2022-12-12T06:12:07.910Z,12.97
2022-12-12T06:14:34.649Z,13.87
2022-12-12T06:17:01.310Z,14.07
2022-12-12T06:19:27.995Z,14.27
2022-12-12T06:21:54.573Z,12.80
2022-12-12T06:24:21.207Z,12.70
2022-12-12T06:26:47.796Z,14.10
2022-12-12T06:29:15.193Z,13.73
2022-12-12T06:31:41.914Z,13.40
2022-12-12T06:34:08.535Z,12.87
2022-12-12T06:36:35.331Z,12.30
2022-12-12T06:39:02.252Z,12.53
2022-12-12T06:41:30.560Z,10.93
2022-12-12T06:43:57.485Z,12.50
2022-12-12T06:46:26.462Z,11.80
2022-12-12T06:48:54.384Z,11.10
2022-12-12T06:51:24.466Z,13.40
2022-12-12T06:53:51.294Z,12.53
2022-12-12T06:56:20.839Z,19.90
2022-12-12T06:58:47.771Z,15.63
2022-12-12T07:01:15.970Z,14.67
2022-12-12T07:03:42.670Z,13.23
2022-12-12T07:06:09.285Z,12.80
2022-12-12T07:08:36.509Z,12.20
2022-12-12T07:11:08.790Z,13.43
2022-12-12T07:13:35.540Z,11.23
2022-12-12T07:16:02.287Z,10.10
2022-12-12T07:18:29.196Z,10.80
2022-12-12T07:20:55.801Z,10.37
2022-12-12T07:23:22.512Z,9.70
2022-12-12T07:25:49.150Z,10.20
2022-12-12T07:28:15.998Z,10.07
2022-12-12T07:30:45.573Z,10.63
2022-12-12T07:33:13.973Z,9.13
2022-12-12T07:35:41.692Z,8.50
2022-12-12T07:38:09.320Z,9.33
2022-12-12T07:40:36.055Z,8.80
2022-12-12T07:43:02.977Z,9.23
2022-12-12T07:45:29.846Z,8.93
2022-12-12T07:47:56.467Z,8.30
2022-12-12T07:50:23.517Z,8.00
2022-12-12T07:52:50.146Z,9.97
2022-12-12T07:55:16.793Z,9.53
2022-12-12T07:57:43.528Z,9.70
2022-12-12T08:00:13.364Z,8.47
2022-12-12T08:02:40.091Z,9.20
2022-12-12T08:05:07.231Z,9.00
2022-12-12T08:07:33.903Z,8.27
2022-12-12T08:10:00.519Z,10.13
2022-12-12T08:12:29.754Z,10.00
2022-12-12T08:14:56.373Z,9.70
2022-12-12T08:17:23.139Z,9.87
2022-12-12T08:19:49.865Z,10.03
2022-12-12T08:22:16.451Z,8.70
2022-12-12T08:24:43.142Z,8.90
2022-12-12T08:27:15.379Z,8.93
2022-12-12T08:29:43.384Z,8.90
2022-12-12T08:32:10.194Z,8.37
2022-12-12T08:34:36.826Z,7.73
2022-12-12T08:37:03.434Z,8.93
2022-12-12T08:39:31.373Z,8.30
2022-12-12T08:41:58.479Z,9.10
2022-12-12T08:44:25.069Z,8.13
2022-12-12T08:46:51.828Z,8.90
2022-12-12T08:49:18.418Z,9.10
2022-12-12T08:51:45.070Z,9.20
2022-12-12T08:54:14.603Z,8.60
2022-12-12T08:56:41.431Z,8.73
2022-12-12T08:59:08.094Z,8.50
2022-12-12T09:01:35.034Z,9.23
2022-12-12T09:04:02.263Z,8.77
2022-12-12T09:06:28.927Z,8.80
2022-12-12T09:08:57.329Z,10.47
2022-12-12T09:11:24.300Z,10.33
2022-12-12T09:13:51.401Z,12.17
2022-12-12T09:16:19.499Z,13.20
2022-12-12T09:18:49.113Z,17.00
2022-12-12T09:21:16.958Z,16.43
2022-12-12T09:23:43.618Z,15.40
2022-12-12T09:26:10.792Z,15.40
2022-12-12T09:28:37.588Z,13.37
2022-12-12T09:31:06.658Z,13.73
2022-12-12T09:33:33.866Z,15.10
2022-12-12T09:36:02.215Z,15.53
2022-12-12T09:38:28.904Z,15.20
2022-12-12T09:41:04.678Z,16.57
2022-12-12T09:43:37.744Z,18.13
2022-12-12T09:46:14.482Z,19.60
2022-12-12T09:48:44.775Z,17.90
2022-12-12T09:51:11.842Z,17.43
2022-12-12T09:53:40.438Z,16.60
2022-12-12T09:56:31.839Z,16.27
2022-12-12T09:59:21.591Z,16.40
2022-12-12T10:02:25.988Z,17.23
2022-12-12T10:04:58.630Z,17.13
2022-12-12T10:07:43.511Z,17.70
2022-12-12T10:10:20.946Z,17.20
2022-12-12T10:12:48.269Z,17.93
2022-12-12T10:15:25.426Z,17.13
2022-12-12T10:17:52.535Z,18.63
2022-12-12T10:20:19.241Z,16.80
2022-12-12T10:22:48.494Z,17.33
2022-12-12T10:25:23.977Z,18.67
2022-12-12T10:27:54.064Z,16.90
2022-12-12T10:30:21.116Z,18.37
2022-12-12T10:33:26.432Z,16.93
2022-12-12T10:36:04.420Z,17.40
2022-12-12T10:38:59.369Z,17.13
2022-12-12T10:41:32.060Z,15.40
2022-12-12T10:44:20.139Z,16.70
2022-12-12T10:46:54.497Z,17.13
2022-12-12T10:49:23.366Z,17.17
2022-12-12T10:51:50.704Z,17.00
2022-12-12T10:54:27.587Z,17.93
2022-12-12T10:57:10.485Z,16.10
2022-12-12T10:59:50.932Z,16.80
2022-12-12T11:02:27.742Z,19.17
2022-12-12T11:05:07.027Z,16.10
2022-12-12T11:07:46.258Z,17.53
2022-12-12T11:10:22.004Z,17.40
2022-12-12T11:13:00.563Z,17.37
2022-12-12T11:15:38.163Z,17.77
2022-12-12T11:18:06.527Z,18.43
2022-12-12T11:20:33.288Z,17.50
2022-12-12T11:22:59.897Z,16.53
2022-12-12T11:25:32.008Z,17.40
2022-12-12T11:28:06.391Z,17.10
2022-12-12T11:30:33.667Z,15.83
2022-12-12T11:33:00.828Z,16.90
2022-12-12T11:35:41.155Z,16.50
2022-12-12T11:38:18.540Z,16.50
2022-12-12T11:40:45.789Z,15.60
2022-12-12T11:43:30.158Z,15.13
2022-12-12T11:46:15.027Z,16.27
2022-12-12T11:48:47.588Z,15.87
2022-12-12T11:51:31.356Z,16.10
2022-12-12T11:53:58.187Z,15.53
2022-12-12T11:56:45.248Z,16.80
2022-12-12T11:59:30.616Z,15.97
2022-12-12T12:02:16.351Z,16.87
2022-12-12T12:05:03.874Z,15.17
2022-12-12T12:07:36.508Z,15.73
2022-12-12T12:10:11.752Z,15.97
2022-12-12T12:12:56.970Z,15.27
2022-12-12T12:15:29.412Z,16.53
2022-12-12T12:18:08.058Z,16.10
2022-12-12T12:20:37.352Z,15.90
2022-12-12T12:23:11.167Z,16.30
2022-12-12T12:25:49.668Z,15.50
2022-12-12T12:28:31.143Z,15.77
2022-12-12T12:31:26.682Z,16.30
2022-12-12T12:34:02.625Z,16.17
2022-12-12T12:37:00.782Z,15.50
2022-12-12T12:39:46.582Z,16.70
2022-12-12T12:42:37.786Z,18.07
2022-12-12T12:45:16.590Z,17.67
2022-12-12T12:47:54.725Z,14.47
2022-12-12T12:50:28.404Z,13.10
2022-12-12T12:52:59.430Z,13.70
2022-12-12T12:55:35.683Z,13.83
2022-12-12T12:58:04.606Z,16.20
2022-12-12T13:00:31.402Z,15.70
2022-12-12T13:03:01.125Z,14.13
2022-12-12T13:05:51.697Z,12.80
2022-12-12T13:08:21.263Z,13.40
2022-12-12T13:10:50.590Z,12.23
2022-12-12T13:13:24.096Z,14.47
2022-12-12T13:16:17.209Z,13.47
2022-12-12T13:18:46.180Z,13.77
2022-12-12T13:21:15.901Z,15.13
2022-12-12T13:24:04.604Z,14.20
2022-12-12T13:26:49.651Z,14.93
2022-12-12T13:29:34.714Z,15.73
2022-12-12T13:32:22.851Z,13.90
2022-12-12T13:34:52.818Z,13.07
2022-12-12T13:37:21.360Z,11.40
2022-12-12T13:40:01.326Z,10.90
2022-12-12T13:42:57.948Z,11.83
2022-12-12T13:45:38.475Z,11.10
2022-12-12T13:48:35.419Z,12.50
2022-12-12T13:51:27.306Z,10.70
2022-12-12T13:54:13.627Z,11.53
2022-12-12T13:57:11.469Z,10.70
2022-12-12T13:59:53.425Z,10.70
2022-12-12T14:02:32.347Z,11.27
2022-12-12T14:05:21.687Z,10.33
2022-12-12T14:07:53.834Z,11.17
2022-12-12T14:10:26.579Z,12.37
2022-12-12T14:12:54.015Z,12.57
2022-12-12T14:15:23.939Z,12.23
2022-12-12T14:17:58.999Z,11.03
2022-12-12T14:20:36.138Z,11.50
2022-12-12T14:23:05.423Z,11.37
2022-12-12T14:25:37.366Z,10.30
2022-12-12T14:28:21.190Z,10.20
2022-12-12T14:30:56.789Z,10.10
2022-12-12T14:33:46.673Z,9.83
2022-12-12T14:36:19.654Z,10.03
2022-12-12T14:39:27.864Z,10.37
2022-12-12T14:41:55.132Z,10.10
2022-12-12T14:44:36.928Z,9.80
2022-12-12T14:47:08.817Z,9.90
2022-12-12T14:49:35.496Z,8.93
2022-12-12T14:52:02.254Z,9.43
2022-12-12T14:54:28.902Z,10.60
2022-12-12T14:56:59.022Z,10.30
2022-12-12T14:59:34.365Z,10.93
2022-12-12T15:02:14.881Z,9.60
2022-12-12T15:04:45.466Z,8.87
2022-12-12T15:07:33.351Z,9.13
2022-12-12T15:10:00.079Z,8.53
2022-12-12T15:12:33.160Z,8.70
2022-12-12T15:14:59.775Z,8.73
2022-12-12T15:17:32.910Z,8.87
2022-12-12T15:20:02.538Z,8.33
2022-12-12T15:22:37.187Z,8.83
2022-12-12T15:25:15.909Z,10.00
2022-12-12T15:27:52.203Z,8.90
2022-12-12T15:30:29.868Z,8.90
2022-12-12T15:32:57.810Z,9.83
2022-12-12T15:35:24.652Z,9.83
2022-12-12T15:37:56.333Z,9.70
2022-12-12T15:40:26.063Z,10.47
2022-12-12T15:42:55.828Z,10.37
2022-12-12T15:45:25.977Z,9.17
2022-12-12T15:47:54.561Z,10.60
2022-12-12T15:50:24.597Z,9.33
2022-12-12T15:53:07.158Z,9.40
2022-12-12T15:55:34.586Z,9.93
2022-12-12T15:58:01.905Z,10.07
2022-12-12T16:00:35.172Z,11.17
2022-12-12T16:03:05.992Z,10.90
2022-12-12T16:05:36.239Z,10.20
2022-12-12T16:08:32.206Z,10.63
2022-12-12T16:11:05.185Z,10.50
2022-12-12T16:13:42.042Z,9.80
2022-12-12T16:16:43.891Z,11.00
2022-12-12T16:19:43.779Z,10.20
2022-12-12T16:22:16.158Z,10.03
2022-12-12T16:24:48.747Z,10.50
2022-12-12T16:27:15.440Z,10.47
2022-12-12T16:29:42.257Z,9.80
2022-12-12T16:32:13.894Z,9.73
2022-12-12T16:34:41.975Z,9.90
2022-12-12T16:37:17.361Z,9.13
2022-12-12T16:39:44.473Z,10.30
2022-12-12T16:42:19.397Z,10.10
2022-12-12T16:44:46.572Z,10.13
2022-12-12T16:47:22.496Z,9.73
2022-12-12T16:49:49.190Z,9.33
2022-12-12T16:52:17.522Z,10.47
2022-12-12T16:54:51.063Z,9.90
2022-12-12T16:57:19.682Z,11.43
2022-12-12T16:59:46.303Z,10.40
2022-12-12T17:02:19.391Z,12.00
2022-12-12T17:04:46.014Z,12.47
2022-12-12T17:07:12.660Z,11.10
2022-12-12T17:09:39.394Z,11.87
2022-12-12T17:12:08.775Z,10.43
2022-12-12T17:14:36.061Z,12.00
2022-12-12T17:17:05.528Z,11.27
2022-12-12T17:19:32.285Z,11.77
2022-12-12T17:21:58.930Z,11.40
2022-12-12T17:24:25.577Z,11.90
2022-12-12T17:26:52.212Z,11.07
2022-12-12T17:29:18.933Z,11.03
2022-12-12T17:31:45.578Z,11.63
2022-12-12T17:34:12.242Z,12.07
2022-12-12T17:36:39.082Z,12.10
2022-12-12T17:39:05.752Z,12.90
2022-12-12T17:41:32.342Z,12.40
2022-12-12T17:43:59.022Z,12.33
2022-12-12T17:46:27.728Z,11.80
2022-12-12T17:48:56.828Z,13.30
2022-12-12T17:51:24.299Z,12.40
2022-12-12T17:53:52.562Z,13.10
2022-12-12T17:56:24.343Z,13.53
2022-12-12T17:58:51.044Z,13.77
2022-12-12T18:01:24.146Z,13.07
2022-12-12T18:03:51.611Z,13.83
2022-12-12T18:06:19.682Z,13.30
2022-12-12T18:08:46.833Z,13.57
2022-12-12T18:11:16.585Z,12.33
2022-12-12T18:13:44.359Z,11.83
2022-12-12T18:16:13.184Z,11.20
2022-12-12T18:18:40.526Z,12.30
2022-12-12T18:24:05.635Z,12.73
2022-12-12T18:26:32.392Z,13.33
2022-12-12T18:29:01.038Z,11.10
2022-12-12T18:31:28.316Z,11.67
2022-12-12T18:33:55.255Z,11.83
2022-12-12T18:36:23.519Z,14.77
2022-12-12T18:38:50.746Z,13.83
2022-12-12T18:41:18.271Z,13.20
2022-12-12T18:43:44.835Z,11.40
2022-12-12T18:46:13.986Z,11.20
2022-12-12T18:48:42.467Z,11.83
2022-12-12T18:51:18.550Z,11.10
2022-12-12T18:53:46.278Z,8.10
2022-12-12T18:56:22.328Z,7.87
2022-12-12T18:58:48.950Z,7.00
2022-12-12T19:01:21.635Z,7.00
2022-12-12T19:03:50.502Z,7.90
2022-12-12T19:06:19.667Z,10.20
2022-12-12T19:08:46.446Z,10.80
2022-12-12T19:11:13.313Z,11.60
2022-12-12T19:13:40.275Z,11.90
2022-12-12T19:16:10.681Z,13.30
2022-12-12T19:18:38.157Z,13.13
2022-12-12T19:21:06.862Z,11.70
2022-12-12T19:23:34.055Z,12.73
2022-12-12T19:26:12.196Z,11.80
2022-12-12T19:28:38.873Z,12.10
2022-12-12T19:31:11.371Z,11.67
2022-12-12T19:33:38.317Z,11.70
2022-12-12T19:36:14.075Z,11.63
2022-12-12T19:38:41.113Z,11.87
2022-12-12T19:41:09.442Z,12.53
2022-12-12T19:43:36.295Z,12.40
2022-12-12T19:46:07.952Z,13.73
2022-12-12T19:48:35.716Z,13.60
2022-12-12T19:51:12.355Z,13.90
2022-12-12T19:53:40.886Z,13.03
2022-12-12T19:56:07.967Z,13.60
2022-12-12T19:58:38.727Z,11.83
2022-12-12T20:01:12.404Z,13.30
2022-12-12T20:03:39.212Z,11.60
2022-12-12T20:06:10.821Z,10.87
2022-12-12T20:08:38.302Z,12.17
2022-12-12T20:11:07.060Z,12.17
2022-12-12T20:13:34.556Z,12.50
2022-12-12T20:16:21.984Z,13.20
2022-12-12T20:18:49.866Z,12.87
2022-12-12T20:21:59.365Z,12.80
2022-12-12T20:24:12.010Z,12.70
2022-12-12T20:26:40.118Z,12.43
2022-12-12T20:29:07.529Z,12.50
2022-12-12T20:31:36.465Z,12.03
2022-12-12T20:34:03.337Z,11.97
2022-12-12T20:36:34.866Z,11.40
2022-12-12T20:39:05.074Z,11.87
2022-12-12T20:41:34.594Z,12.93
2022-12-12T20:44:01.227Z,12.37
2022-12-12T20:46:38.430Z,12.60
2022-12-12T20:49:09.228Z,11.80
2022-12-12T20:54:24.252Z,10.70
2022-12-12T20:56:51.265Z,11.50
2022-12-12T20:59:18.151Z,11.40
2022-12-12T21:01:44.883Z,11.03
2022-12-12T21:04:11.613Z,10.87
2022-12-12T21:06:48.607Z,11.50
2022-12-12T21:09:22.546Z,11.53
2022-12-12T21:11:52.336Z,11.80
2022-12-12T21:14:19.042Z,12.37
2022-12-12T21:16:45.632Z,12.23
2022-12-12T21:19:14.238Z,12.00
2022-12-12T21:21:42.643Z,12.33
2022-12-12T21:24:11.447Z,13.20
2022-12-12T21:26:38.107Z,13.07
2022-12-12T21:29:04.897Z,12.60
2022-12-12T21:31:37.061Z,12.33
2022-12-12T21:34:04.948Z,12.10
2022-12-12T21:36:31.730Z,12.17
2022-12-12T21:38:59.464Z,12.60
2022-12-12T21:41:26.493Z,11.90
2022-12-12T21:43:53.358Z,10.90
2022-12-12T21:46:22.108Z,12.67
2022-12-12T21:49:09.373Z,11.60
2022-12-12T21:51:36.164Z,12.23
2022-12-12T21:54:07.111Z,12.77
2022-12-12T21:56:33.933Z,14.30
2022-12-12T21:59:00.574Z,14.17
2022-12-12T22:01:27.819Z,14.47
2022-12-12T22:03:55.136Z,12.73
2022-12-12T22:06:26.848Z,14.63
2022-12-12T22:08:57.420Z,14.97
2022-12-12T22:11:41.524Z,12.33
2022-12-12T22:14:11.436Z,15.20
2022-12-12T22:16:38.354Z,13.77
2022-12-12T22:19:07.785Z,14.10
2022-12-12T22:21:35.023Z,12.53
2022-12-12T22:24:02.375Z,14.43
2022-12-12T22:26:34.593Z,14.30
2022-12-12T22:29:07.443Z,14.53
2022-12-12T22:31:37.421Z,13.00
2022-12-12T22:34:10.651Z,13.83
2022-12-12T22:36:38.693Z,13.93
2022-12-12T22:39:07.604Z,13.83
2022-12-12T22:41:34.664Z,13.70
2022-12-12T22:44:03.875Z,13.80
2022-12-12T22:46:30.649Z,14.10
2022-12-12T22:48:59.512Z,13.57
2022-12-12T22:51:29.406Z,13.80
2022-12-12T22:53:57.324Z,14.67
2022-12-12T22:56:23.965Z,14.00
2022-12-12T22:58:50.843Z,14.70
2022-12-12T23:01:19.839Z,14.70
2022-12-12T23:03:47.218Z,13.30
2022-12-12T23:06:16.896Z,15.20
2022-12-12T23:08:44.303Z,12.70
2022-12-12T23:11:13.547Z,13.60
2022-12-12T23:13:43.460Z,13.13
2022-12-12T23:16:12.908Z,15.03
2022-12-12T23:18:40.483Z,14.70
2022-12-12T23:21:14.925Z,13.80
2022-12-12T23:23:43.543Z,12.73
2022-12-12T23:26:18.770Z,14.87
2022-12-12T23:28:46.527Z,13.43
2022-12-12T23:31:21.948Z,14.47
2022-12-12T23:33:55.222Z,13.43
2022-12-12T23:36:22.953Z,14.37
2022-12-12T23:38:54.608Z,14.10
2022-12-12T23:41:21.453Z,15.17
2022-12-12T23:43:49.217Z,14.70
2022-12-12T23:46:28.679Z,15.87
2022-12-12T23:48:56.670Z,15.30
2022-12-12T23:51:24.483Z,14.67
2022-12-12T23:53:51.149Z,16.33
2022-12-12T23:56:17.827Z,15.90
2022-12-12T23:58:44.754Z,14.90
